sensor_id;sensor_type;location;lat;lon;timestamp;pressure;altitude;pressure_sealevel;temperature;humidity
66385;BME280;53426;55.872;37.462;2024-03-08T00:02:11;99285.25;;;-3.97;64.34
66385;BME280;53426;55.872;37.462;2024-03-08T00:04:36;99286.91;;;-3.94;64.47
66385;BME280;53426;55.872;37.462;2024-03-08T00:07:04;99279.38;;;-4.02;63.88
66385;BME280;53426;55.872;37.462;2024-03-08T00:09:30;99260.72;;;-4.11;64.25
66385;BME280;53426;55.872;37.462;2024-03-08T00:11:56;99263.31;;;-4.13;64.50
66385;BME280;53426;55.872;37.462;2024-03-08T00:14:22;99233.94;;;-4.38;64.08
66385;BME280;53426;55.872;37.462;2024-03-08T00:16:50;99249.44;;;-4.38;63.87
66385;BME280;53426;55.872;37.462;2024-03-08T00:19:15;99223.13;;;-4.52;64.58
66385;BME280;53426;55.872;37.462;2024-03-08T00:21:42;99245.78;;;-4.31;64.65
66385;BME280;53426;55.872;37.462;2024-03-08T00:24:11;99222.06;;;-4.45;64.54
66385;BME280;53426;55.872;37.462;2024-03-08T00:26:37;99191.38;;;-4.56;64.85
66385;BME280;53426;55.872;37.462;2024-03-08T00:29:21;99242.19;;;-4.26;64.58
66385;BME280;53426;55.872;37.462;2024-03-08T00:31:47;99150.22;;;-4.91;64.63
66385;BME280;53426;55.872;37.462;2024-03-08T00:34:37;98913.19;;;-6.24;64.30
66385;BME280;53426;55.872;37.462;2024-03-08T00:37:28;99231.53;;;-4.15;64.75
66385;BME280;53426;55.872;37.462;2024-03-08T00:39:54;99144.16;;;-4.61;64.84
66385;BME280;53426;55.872;37.462;2024-03-08T00:42:22;99219.88;;;-4.00;64.65
66385;BME280;53426;55.872;37.462;2024-03-08T00:44:49;99222.97;;;-3.89;64.50
66385;BME280;53426;55.872;37.462;2024-03-08T00:47:17;99225.41;;;-3.85;63.96
66385;BME280;53426;55.872;37.462;2024-03-08T00:49:43;99216.94;;;-3.90;63.95
66385;BME280;53426;55.872;37.462;2024-03-08T00:52:09;99213.41;;;-3.87;63.70
66385;BME280;53426;55.872;37.462;2024-03-08T00:54:35;99066.19;;;-4.74;64.03
66385;BME280;53426;55.872;37.462;2024-03-08T00:57:06;99089.50;;;-4.47;63.52
66385;BME280;53426;55.872;37.462;2024-03-08T01:03:39;99097.47;;;-4.55;63.47
66385;BME280;53426;55.872;37.462;2024-03-08T01:06:06;99195.25;;;-3.86;63.53
66385;BME280;53426;55.872;37.462;2024-03-08T01:08:32;99192.78;;;-3.89;63.27
66385;BME280;53426;55.872;37.462;2024-03-08T01:10:58;99169.38;;;-4.12;63.63
66385;BME280;53426;55.872;37.462;2024-03-08T01:13:24;99129.28;;;-4.25;63.74
66385;BME280;53426;55.872;37.462;2024-03-08T01:15:53;99130.75;;;-4.16;63.85
66385;BME280;53426;55.872;37.462;2024-03-08T01:18:20;99182.88;;;-3.76;63.72
66385;BME280;53426;55.872;37.462;2024-03-08T01:20:46;99121.34;;;-4.19;63.64
66385;BME280;53426;55.872;37.462;2024-03-08T01:23:12;99159.56;;;-3.74;63.28
66385;BME280;53426;55.872;37.462;2024-03-08T01:25:39;99147.31;;;-3.69;63.56
66385;BME280;53426;55.872;37.462;2024-03-08T01:28:05;99181.75;;;-3.41;62.89
66385;BME280;53426;55.872;37.462;2024-03-08T01:30:32;99167.91;;;-3.40;62.96
66385;BME280;53426;55.872;37.462;2024-03-08T01:33:00;99182.97;;;-3.26;62.83
66385;BME280;53426;55.872;37.462;2024-03-08T01:35:26;99176.41;;;-3.37;62.71
66385;BME280;53426;55.872;37.462;2024-03-08T01:37:53;99166.09;;;-3.38;62.45
66385;BME280;53426;55.872;37.462;2024-03-08T01:40:20;99147.56;;;-3.51;62.06
66385;BME280;53426;55.872;37.462;2024-03-08T01:42:46;99169.13;;;-3.50;61.56
66385;BME280;53426;55.872;37.462;2024-03-08T01:45:14;99182.34;;;-3.59;62.40
66385;BME280;53426;55.872;37.462;2024-03-08T01:47:41;99140.75;;;-4.06;62.69
66385;BME280;53426;55.872;37.462;2024-03-08T01:50:09;99174.16;;;-4.00;63.66
66385;BME280;53426;55.872;37.462;2024-03-08T01:52:36;99179.72;;;-4.12;63.54
66385;BME280;53426;55.872;37.462;2024-03-08T01:55:03;99171.25;;;-4.17;63.63
66385;BME280;53426;55.872;37.462;2024-03-08T01:57:33;99178.00;;;-4.13;64.00
66385;BME280;53426;55.872;37.462;2024-03-08T02:00:04;99113.13;;;-4.59;64.33
66385;BME280;53426;55.872;37.462;2024-03-08T02:02:33;99134.50;;;-4.54;64.39
66385;BME280;53426;55.872;37.462;2024-03-08T02:05:01;99166.78;;;-4.40;64.64
66385;BME280;53426;55.872;37.462;2024-03-08T02:07:30;99158.47;;;-4.49;64.77
66385;BME280;53426;55.872;37.462;2024-03-08T02:09:59;99145.06;;;-4.64;65.01
66385;BME280;53426;55.872;37.462;2024-03-08T02:12:30;99150.06;;;-4.57;64.98
66385;BME280;53426;55.872;37.462;2024-03-08T02:14:57;99113.84;;;-4.85;65.38
66385;BME280;53426;55.872;37.462;2024-03-08T02:17:24;99171.28;;;-4.46;65.85
66385;BME280;53426;55.872;37.462;2024-03-08T02:19:50;99053.81;;;-5.21;66.10
66385;BME280;53426;55.872;37.462;2024-03-08T02:22:16;99156.22;;;-4.61;65.58
66385;BME280;53426;55.872;37.462;2024-03-08T02:24:43;99048.78;;;-5.26;65.83
66385;BME280;53426;55.872;37.462;2024-03-08T02:27:09;99167.09;;;-4.50;65.73
66385;BME280;53426;55.872;37.462;2024-03-08T02:29:42;99116.34;;;-4.81;66.04
66385;BME280;53426;55.872;37.462;2024-03-08T02:32:12;99160.09;;;-4.47;65.51
66385;BME280;53426;55.872;37.462;2024-03-08T02:34:38;99163.44;;;-4.43;65.88
66385;BME280;53426;55.872;37.462;2024-03-08T02:37:08;99099.13;;;-4.80;65.88
66385;BME280;53426;55.872;37.462;2024-03-08T02:39:34;99143.31;;;-4.61;65.77
66385;BME280;53426;55.872;37.462;2024-03-08T02:42:26;98931.84;;;-5.85;66.02
66385;BME280;53426;55.872;37.462;2024-03-08T02:44:52;99165.25;;;-4.47;65.73
66385;BME280;53426;55.872;37.462;2024-03-08T02:47:18;99162.78;;;-4.50;65.54
66385;BME280;53426;55.872;37.462;2024-03-08T02:53:09;99165.03;;;-4.39;65.98
66385;BME280;53426;55.872;37.462;2024-03-08T02:59:40;99130.91;;;-4.50;66.46
66385;BME280;53426;55.872;37.462;2024-03-08T03:02:32;99147.59;;;-4.31;65.76
66385;BME280;53426;55.872;37.462;2024-03-08T03:04:59;98912.25;;;-5.90;66.68
66385;BME280;53426;55.872;37.462;2024-03-08T03:07:28;99141.03;;;-4.43;66.86
66385;BME280;53426;55.872;37.462;2024-03-08T03:09:54;99147.94;;;-4.43;67.14
66385;BME280;53426;55.872;37.462;2024-03-08T03:12:20;99127.31;;;-4.45;67.49
66385;BME280;53426;55.872;37.462;2024-03-08T03:14:46;99110.88;;;-4.42;67.27
66385;BME280;53426;55.872;37.462;2024-03-08T03:17:13;99120.81;;;-4.30;67.36
66385;BME280;53426;55.872;37.462;2024-03-08T03:19:40;99062.16;;;-4.54;67.53
66385;BME280;53426;55.872;37.462;2024-03-08T03:22:09;99108.56;;;-4.24;67.00
66385;BME280;53426;55.872;37.462;2024-03-08T03:24:36;99111.44;;;-4.33;67.27
66385;BME280;53426;55.872;37.462;2024-03-08T03:27:04;99118.03;;;-4.24;67.75
66385;BME280;53426;55.872;37.462;2024-03-08T03:29:40;99096.00;;;-4.36;67.84
66385;BME280;53426;55.872;37.462;2024-03-08T03:32:12;98997.94;;;-4.93;67.47
66385;BME280;53426;55.872;37.462;2024-03-08T03:34:41;99105.19;;;-4.26;67.66
66385;BME280;53426;55.872;37.462;2024-03-08T03:41:37;99114.56;;;-4.23;67.16
66385;BME280;53426;55.872;37.462;2024-03-08T03:47:11;99118.31;;;-4.32;67.72
66385;BME280;53426;55.872;37.462;2024-03-08T03:50:45;98998.25;;;-4.76;67.55
66385;BME280;53426;55.872;37.462;2024-03-08T03:53:11;99034.94;;;-4.65;67.31
66385;BME280;53426;55.872;37.462;2024-03-08T03:55:38;99071.53;;;-4.24;67.80
66385;BME280;53426;55.872;37.462;2024-03-08T03:58:04;99096.78;;;-4.06;67.55
66385;BME280;53426;55.872;37.462;2024-03-08T04:03:19;99121.84;;;-3.82;68.32
66385;BME280;53426;55.872;37.462;2024-03-08T04:05:46;99092.63;;;-3.84;67.88
66385;BME280;53426;55.872;37.462;2024-03-08T04:08:19;99052.81;;;-4.04;67.42
66385;BME280;53426;55.872;37.462;2024-03-08T04:10:48;98972.53;;;-4.52;67.45
66385;BME280;53426;55.872;37.462;2024-03-08T04:13:14;99048.97;;;-4.19;67.42
66385;BME280;53426;55.872;37.462;2024-03-08T04:15:42;98992.09;;;-4.45;67.82
66385;BME280;53426;55.872;37.462;2024-03-08T04:18:14;99094.50;;;-3.89;67.63
66385;BME280;53426;55.872;37.462;2024-03-08T04:20:42;99093.28;;;-3.77;67.97
66385;BME280;53426;55.872;37.462;2024-03-08T04:23:08;99070.91;;;-3.80;67.79
66385;BME280;53426;55.872;37.462;2024-03-08T04:29:53;98934.56;;;-4.50;67.31
66385;BME280;53426;55.872;37.462;2024-03-08T04:32:19;98973.66;;;-4.35;67.15
66385;BME280;53426;55.872;37.462;2024-03-08T04:37:40;99103.56;;;-3.51;67.75
66385;BME280;53426;55.872;37.462;2024-03-08T04:43:24;99077.19;;;-3.37;67.56
66385;BME280;53426;55.872;37.462;2024-03-08T04:45:56;98996.66;;;-4.01;67.65
66385;BME280;53426;55.872;37.462;2024-03-08T04:58:21;98995.41;;;-3.89;67.56
66385;BME280;53426;55.872;37.462;2024-03-08T05:00:47;99019.97;;;-3.53;68.02
66385;BME280;53426;55.872;37.462;2024-03-08T05:03:13;99058.59;;;-3.23;68.19
66385;BME280;53426;55.872;37.462;2024-03-08T05:05:39;98993.31;;;-3.55;68.14
66385;BME280;53426;55.872;37.462;2024-03-08T05:08:05;98927.09;;;-4.08;68.01
66385;BME280;53426;55.872;37.462;2024-03-08T05:10:32;98765.13;;;-5.06;68.05
66385;BME280;53426;55.872;37.462;2024-03-08T05:12:58;98935.81;;;-4.11;68.38
66385;BME280;53426;55.872;37.462;2024-03-08T05:15:24;98967.41;;;-3.78;68.68
66385;BME280;53426;55.872;37.462;2024-03-08T05:17:52;99035.94;;;-3.17;69.01
66385;BME280;53426;55.872;37.462;2024-03-08T05:20:18;99070.09;;;-3.07;69.16
66385;BME280;53426;55.872;37.462;2024-03-08T05:22:46;98964.56;;;-3.47;68.43
66385;BME280;53426;55.872;37.462;2024-03-08T05:25:12;98897.22;;;-3.92;68.05
66385;BME280;53426;55.872;37.462;2024-03-08T05:27:47;99059.03;;;-2.89;68.24
66385;BME280;53426;55.872;37.462;2024-03-08T05:30:19;99046.25;;;-2.93;68.05
66385;BME280;53426;55.872;37.462;2024-03-08T05:32:47;99051.00;;;-3.05;67.74
66385;BME280;53426;55.872;37.462;2024-03-08T05:35:13;98964.47;;;-3.44;67.80
66385;BME280;53426;55.872;37.462;2024-03-08T05:38:16;98815.44;;;-4.18;67.80
66385;BME280;53426;55.872;37.462;2024-03-08T05:40:42;98880.69;;;-3.65;68.21
66385;BME280;53426;55.872;37.462;2024-03-08T05:43:12;98807.28;;;-4.07;67.83
66385;BME280;53426;55.872;37.462;2024-03-08T05:46:16;99039.38;;;-2.71;67.54
66385;BME280;53426;55.872;37.462;2024-03-08T05:49:21;99045.13;;;-2.63;67.47
66385;BME280;53426;55.872;37.462;2024-03-08T05:51:47;98868.16;;;-3.75;66.98
66385;BME280;53426;55.872;37.462;2024-03-08T05:54:13;98959.84;;;-2.91;67.24
66385;BME280;53426;55.872;37.462;2024-03-08T05:57:04;99028.16;;;-2.28;67.35
66385;BME280;53426;55.872;37.462;2024-03-08T05:59:32;98908.00;;;-2.89;66.99
66385;BME280;53426;55.872;37.462;2024-03-08T06:02:01;98915.66;;;-2.88;66.64
66385;BME280;53426;55.872;37.462;2024-03-08T06:04:29;98948.38;;;-2.64;66.44
66385;BME280;53426;55.872;37.462;2024-03-08T06:07:24;98809.09;;;-3.43;66.48
66385;BME280;53426;55.872;37.462;2024-03-08T06:09:56;99019.28;;;-2.23;66.32
66385;BME280;53426;55.872;37.462;2024-03-08T06:12:22;99001.69;;;-2.15;65.54
66385;BME280;53426;55.872;37.462;2024-03-08T06:14:50;99021.13;;;-2.04;66.25
66385;BME280;53426;55.872;37.462;2024-03-08T06:17:19;99039.56;;;-1.90;65.51
66385;BME280;53426;55.872;37.462;2024-03-08T06:19:54;98902.81;;;-2.47;65.30
66385;BME280;53426;55.872;37.462;2024-03-08T06:22:23;99038.78;;;-1.52;64.93
66385;BME280;53426;55.872;37.462;2024-03-08T06:25:01;99027.53;;;-1.52;64.65
66385;BME280;53426;55.872;37.462;2024-03-08T06:27:34;98813.56;;;-2.82;64.04
66385;BME280;53426;55.872;37.462;2024-03-08T06:30:04;98932.06;;;-2.24;63.98
66385;BME280;53426;55.872;37.462;2024-03-08T06:33:01;99020.09;;;-1.60;64.45
66385;BME280;53426;55.872;37.462;2024-03-08T06:35:34;99025.75;;;-1.50;64.63
66385;BME280;53426;55.872;37.462;2024-03-08T06:38:27;98827.84;;;-2.52;64.61
66385;BME280;53426;55.872;37.462;2024-03-08T06:40:53;98902.97;;;-1.91;63.71
66385;BME280;53426;55.872;37.462;2024-03-08T06:43:20;98931.22;;;-1.85;63.66
66385;BME280;53426;55.872;37.462;2024-03-08T06:45:47;98868.41;;;-2.12;63.39
66385;BME280;53426;55.872;37.462;2024-03-08T06:48:19;98916.84;;;-2.13;63.22
66385;BME280;53426;55.872;37.462;2024-03-08T06:50:46;98957.03;;;-1.62;63.32
66385;BME280;53426;55.872;37.462;2024-03-08T06:53:12;99031.22;;;-1.17;63.07
66385;BME280;53426;55.872;37.462;2024-03-08T06:55:42;99010.63;;;-1.03;62.70
66385;BME280;53426;55.872;37.462;2024-03-08T06:58:10;98914.44;;;-1.58;62.94
66385;BME280;53426;55.872;37.462;2024-03-08T07:00:37;98961.97;;;-1.18;62.11
66385;BME280;53426;55.872;37.462;2024-03-08T07:03:04;98955.09;;;-1.19;62.18
66385;BME280;53426;55.872;37.462;2024-03-08T07:05:33;98890.88;;;-1.72;62.20
66385;BME280;53426;55.872;37.462;2024-03-08T07:08:00;98931.84;;;-1.60;62.91
66385;BME280;53426;55.872;37.462;2024-03-08T07:10:26;98960.34;;;-1.40;62.62
66385;BME280;53426;55.872;37.462;2024-03-08T07:12:55;98927.28;;;-1.94;63.42
66385;BME280;53426;55.872;37.462;2024-03-08T07:15:28;98981.28;;;-1.43;63.19
66385;BME280;53426;55.872;37.462;2024-03-08T07:21:07;99037.25;;;-0.98;62.82
66385;BME280;53426;55.872;37.462;2024-03-08T07:23:43;98974.50;;;-1.27;61.93
66385;BME280;53426;55.872;37.462;2024-03-08T07:26:20;98873.84;;;-1.59;62.36
66385;BME280;53426;55.872;37.462;2024-03-08T07:28:46;99015.41;;;-0.57;62.40
66385;BME280;53426;55.872;37.462;2024-03-08T07:31:15;98927.81;;;-1.09;61.36
66385;BME280;53426;55.872;37.462;2024-03-08T07:34:36;99017.72;;;-0.51;61.70
66385;BME280;53426;55.872;37.462;2024-03-08T07:37:01;98972.97;;;-0.76;61.08
66385;BME280;53426;55.872;37.462;2024-03-08T07:39:28;99022.75;;;-0.48;61.39
66385;BME280;53426;55.872;37.462;2024-03-08T07:42:18;99014.94;;;-0.48;61.86
66385;BME280;53426;55.872;37.462;2024-03-08T07:44:45;99015.28;;;-0.36;61.64
66385;BME280;53426;55.872;37.462;2024-03-08T07:47:14;99020.06;;;-0.27;60.95
66385;BME280;53426;55.872;37.462;2024-03-08T07:49:43;98960.56;;;-0.52;61.14
66385;BME280;53426;55.872;37.462;2024-03-08T07:52:34;99011.03;;;-0.03;60.98
66385;BME280;53426;55.872;37.462;2024-03-08T07:55:02;98967.84;;;-0.42;60.40
66385;BME280;53426;55.872;37.462;2024-03-08T07:57:32;98998.41;;;-0.11;60.35
66385;BME280;53426;55.872;37.462;2024-03-08T08:00:24;99009.59;;;0.26;60.52
66385;BME280;53426;55.872;37.462;2024-03-08T08:02:54;99013.13;;;0.25;59.93
66385;BME280;53426;55.872;37.462;2024-03-08T08:05:37;99018.84;;;0.14;60.34
66385;BME280;53426;55.872;37.462;2024-03-08T08:08:05;98782.63;;;-1.15;61.05
66385;BME280;53426;55.872;37.462;2024-03-08T08:10:33;98901.94;;;-0.40;60.49
66385;BME280;53426;55.872;37.462;2024-03-08T08:12:59;98948.28;;;-0.14;60.59
66385;BME280;53426;55.872;37.462;2024-03-08T08:15:26;99000.63;;;0.31;60.89
66385;BME280;53426;55.872;37.462;2024-03-08T08:17:54;99005.47;;;0.55;60.17
66385;BME280;53426;55.872;37.462;2024-03-08T08:20:20;98849.06;;;-0.24;59.60
66385;BME280;53426;55.872;37.462;2024-03-08T08:22:47;98846.31;;;-0.05;59.66
66385;BME280;53426;55.872;37.462;2024-03-08T08:25:14;98893.75;;;0.17;58.72
66385;BME280;53426;55.872;37.462;2024-03-08T08:36:13;98894.84;;;-0.04;59.82
66385;BME280;53426;55.872;37.462;2024-03-08T08:39:04;98944.88;;;0.35;59.51
66385;BME280;53426;55.872;37.462;2024-03-08T08:41:49;98902.09;;;0.39;59.52
66385;BME280;53426;55.872;37.462;2024-03-08T08:44:15;99001.38;;;0.99;59.41
66385;BME280;53426;55.872;37.462;2024-03-08T08:46:41;98987.94;;;0.91;59.44
66385;BME280;53426;55.872;37.462;2024-03-08T08:49:07;98965.13;;;0.79;58.99
66385;BME280;53426;55.872;37.462;2024-03-08T08:51:40;99027.69;;;0.95;59.31
66385;BME280;53426;55.872;37.462;2024-03-08T08:54:06;98969.00;;;0.55;59.67
66385;BME280;53426;55.872;37.462;2024-03-08T08:56:32;98993.53;;;0.83;59.89
66385;BME280;53426;55.872;37.462;2024-03-08T08:59:01;98958.53;;;0.72;59.12
66385;BME280;53426;55.872;37.462;2024-03-08T09:01:32;98990.03;;;1.00;59.46
66385;BME280;53426;55.872;37.462;2024-03-08T09:04:08;98824.56;;;0.45;59.41
66385;BME280;53426;55.872;37.462;2024-03-08T09:10:39;98967.06;;;2.14;57.47
66385;BME280;53426;55.872;37.462;2024-03-08T09:13:10;98921.66;;;1.72;56.43
66385;BME280;53426;55.872;37.462;2024-03-08T09:15:37;98825.31;;;1.39;56.12
66385;BME280;53426;55.872;37.462;2024-03-08T09:18:13;98795.47;;;1.29;55.90
66385;BME280;53426;55.872;37.462;2024-03-08T09:20:40;98979.22;;;2.29;55.63
66385;BME280;53426;55.872;37.462;2024-03-08T09:23:29;98975.25;;;2.07;56.98
66385;BME280;53426;55.872;37.462;2024-03-08T09:26:04;98949.09;;;1.79;57.25
66385;BME280;53426;55.872;37.462;2024-03-08T09:28:33;98991.09;;;2.04;57.17
66385;BME280;53426;55.872;37.462;2024-03-08T09:31:29;98979.16;;;2.00;56.97
66385;BME280;53426;55.872;37.462;2024-03-08T09:34:43;98984.16;;;1.89;57.10
66385;BME280;53426;55.872;37.462;2024-03-08T09:37:16;98856.84;;;0.89;57.53
66385;BME280;53426;55.872;37.462;2024-03-08T09:51:15;98899.28;;;1.22;58.47
66385;BME280;53426;55.872;37.462;2024-03-08T09:53:43;98974.75;;;1.71;58.83
66385;BME280;53426;55.872;37.462;2024-03-08T09:56:43;98729.00;;;0.31;58.25
66385;BME280;53426;55.872;37.462;2024-03-08T09:59:13;98955.44;;;1.44;58.38
66385;BME280;53426;55.872;37.462;2024-03-08T10:05:41;98824.66;;;0.90;58.09
66385;BME280;53426;55.872;37.462;2024-03-08T10:11:02;98883.59;;;1.38;57.40
66385;BME280;53426;55.872;37.462;2024-03-08T10:13:28;98871.09;;;1.29;58.60
66385;BME280;53426;55.872;37.462;2024-03-08T10:15:55;98852.13;;;1.11;58.02
66385;BME280;53426;55.872;37.462;2024-03-08T10:18:35;98906.41;;;1.35;57.62
66385;BME280;53426;55.872;37.462;2024-03-08T10:21:03;98884.47;;;1.53;58.04
66385;BME280;53426;55.872;37.462;2024-03-08T10:23:37;98969.66;;;2.14;57.33
66385;BME280;53426;55.872;37.462;2024-03-08T10:26:15;98973.09;;;2.44;57.03
66385;BME280;53426;55.872;37.462;2024-03-08T10:38:20;98788.94;;;0.61;58.51
66385;BME280;53426;55.872;37.462;2024-03-08T10:40:52;98876.41;;;1.12;58.74
66385;BME280;53426;55.872;37.462;2024-03-08T10:43:24;98883.72;;;1.21;58.87
66385;BME280;53426;55.872;37.462;2024-03-08T10:46:03;98926.63;;;1.61;58.87
66385;BME280;53426;55.872;37.462;2024-03-08T10:48:44;98832.91;;;1.28;58.07
66385;BME280;53426;55.872;37.462;2024-03-08T10:54:31;98935.88;;;1.66;57.63
66385;BME280;53426;55.872;37.462;2024-03-08T10:57:17;98910.63;;;1.67;58.20
66385;BME280;53426;55.872;37.462;2024-03-08T10:59:43;98985.69;;;1.78;58.49
66385;BME280;53426;55.872;37.462;2024-03-08T11:02:12;98965.25;;;1.70;58.88
66385;BME280;53426;55.872;37.462;2024-03-08T11:05:10;98842.56;;;0.96;58.59
66385;BME280;53426;55.872;37.462;2024-03-08T11:07:42;98865.06;;;1.13;58.68
66385;BME280;53426;55.872;37.462;2024-03-08T11:10:19;98784.16;;;0.69;59.31
66385;BME280;53426;55.872;37.462;2024-03-08T11:12:47;98959.84;;;2.03;58.38
66385;BME280;53426;55.872;37.462;2024-03-08T11:15:24;98835.78;;;1.23;57.98
66385;BME280;53426;55.872;37.462;2024-03-08T11:22:21;98894.69;;;2.01;57.52
66385;BME280;53426;55.872;37.462;2024-03-08T11:28:15;98944.69;;;2.80;56.40
66385;BME280;53426;55.872;37.462;2024-03-08T11:34:55;98814.13;;;1.95;56.19
66385;BME280;53426;55.872;37.462;2024-03-08T11:44:17;98945.72;;;2.21;57.30
66385;BME280;53426;55.872;37.462;2024-03-08T11:46:43;98951.22;;;2.31;57.48
66385;BME280;53426;55.872;37.462;2024-03-08T11:49:16;98922.13;;;2.23;57.19
66385;BME280;53426;55.872;37.462;2024-03-08T11:55:29;98835.34;;;1.75;56.77
66385;BME280;53426;55.872;37.462;2024-03-08T12:03:09;98766.72;;;1.31;56.71
66385;BME280;53426;55.872;37.462;2024-03-08T12:08:35;98951.91;;;2.48;56.44
66385;BME280;53426;55.872;37.462;2024-03-08T12:11:07;98893.00;;;2.15;56.51
66385;BME280;53426;55.872;37.462;2024-03-08T12:13:36;98803.94;;;1.62;56.55
66385;BME280;53426;55.872;37.462;2024-03-08T12:32:03;98874.69;;;1.86;55.53
66385;BME280;53426;55.872;37.462;2024-03-08T12:41:00;98863.09;;;1.62;56.71
66385;BME280;53426;55.872;37.462;2024-03-08T12:43:30;98892.13;;;1.86;56.19
66385;BME280;53426;55.872;37.462;2024-03-08T12:45:56;98947.69;;;2.46;56.09
66385;BME280;53426;55.872;37.462;2024-03-08T12:48:26;98898.63;;;2.23;55.92
66385;BME280;53426;55.872;37.462;2024-03-08T12:52:18;98923.63;;;2.55;55.45
66385;BME280;53426;55.872;37.462;2024-03-08T12:59:04;98877.06;;;2.19;55.01
66385;BME280;53426;55.872;37.462;2024-03-08T13:01:34;98979.44;;;2.68;55.18
66385;BME280;53426;55.872;37.462;2024-03-08T13:04:21;98823.91;;;1.48;55.55
66385;BME280;53426;55.872;37.462;2024-03-08T13:06:50;98982.22;;;2.37;56.06
66385;BME280;53426;55.872;37.462;2024-03-08T13:09:17;98867.13;;;1.67;56.25
66385;BME280;53426;55.872;37.462;2024-03-08T13:12:08;98953.47;;;2.23;56.74
66385;BME280;53426;55.872;37.462;2024-03-08T13:14:34;98750.53;;;0.80;57.18
66385;BME280;53426;55.872;37.462;2024-03-08T13:17:04;98970.97;;;2.06;57.12
66385;BME280;53426;55.872;37.462;2024-03-08T13:28:32;98935.31;;;1.61;58.07
66385;BME280;53426;55.872;37.462;2024-03-08T13:31:06;98837.84;;;1.03;57.79
66385;BME280;53426;55.872;37.462;2024-03-08T13:33:38;98934.84;;;1.85;57.93
66385;BME280;53426;55.872;37.462;2024-03-08T13:36:06;98917.88;;;1.62;57.69
66385;BME280;53426;55.872;37.462;2024-03-08T13:38:46;98965.88;;;1.89;57.85
66385;BME280;53426;55.872;37.462;2024-03-08T13:41:16;98953.53;;;1.77;57.90
66385;BME280;53426;55.872;37.462;2024-03-08T13:43:47;98841.06;;;0.92;58.32
66385;BME280;53426;55.872;37.462;2024-03-08T13:46:22;98824.16;;;0.52;58.59
66385;BME280;53426;55.872;37.462;2024-03-08T13:48:50;98728.41;;;-0.06;59.54
66385;BME280;53426;55.872;37.462;2024-03-08T13:54:46;98742.09;;;-0.18;60.13
66385;BME280;53426;55.872;37.462;2024-03-08T13:57:13;98981.63;;;1.26;60.72
66385;BME280;53426;55.872;37.462;2024-03-08T13:59:39;98848.38;;;0.70;60.36
66385;BME280;53426;55.872;37.462;2024-03-08T14:02:15;98736.06;;;0.29;59.39
66385;BME280;53426;55.872;37.462;2024-03-08T14:04:43;98864.25;;;0.97;59.90
66385;BME280;53426;55.872;37.462;2024-03-08T14:07:08;98840.56;;;0.70;59.67
66385;BME280;53426;55.872;37.462;2024-03-08T14:09:37;98962.41;;;1.59;59.57
66385;BME280;53426;55.872;37.462;2024-03-08T14:12:10;98824.25;;;0.66;59.68
66385;BME280;53426;55.872;37.462;2024-03-08T14:14:36;98894.34;;;1.02;60.21
66385;BME280;53426;55.872;37.462;2024-03-08T14:17:03;98815.00;;;0.61;60.03
66385;BME280;53426;55.872;37.462;2024-03-08T14:19:55;98875.00;;;1.06;59.86
66385;BME280;53426;55.872;37.462;2024-03-08T14:22:21;98921.75;;;1.09;60.02
66385;BME280;53426;55.872;37.462;2024-03-08T14:24:47;98922.00;;;1.05;60.31
66385;BME280;53426;55.872;37.462;2024-03-08T14:27:15;98921.75;;;1.09;60.57
66385;BME280;53426;55.872;37.462;2024-03-08T14:29:45;98914.19;;;0.89;60.95
66385;BME280;53426;55.872;37.462;2024-03-08T14:32:11;98974.22;;;1.35;60.91
66385;BME280;53426;55.872;37.462;2024-03-08T14:34:38;98942.69;;;1.23;61.01
66385;BME280;53426;55.872;37.462;2024-03-08T14:37:04;98925.28;;;1.08;60.83
66385;BME280;53426;55.872;37.462;2024-03-08T14:39:34;98864.50;;;0.76;61.27
66385;BME280;53426;55.872;37.462;2024-03-08T14:42:00;98903.59;;;0.92;61.44
66385;BME280;53426;55.872;37.462;2024-03-08T14:44:29;98934.69;;;1.11;62.06
66385;BME280;53426;55.872;37.462;2024-03-08T14:46:58;98916.19;;;1.00;61.83
66385;BME280;53426;55.872;37.462;2024-03-08T14:49:25;98976.34;;;1.28;62.05
66385;BME280;53426;55.872;37.462;2024-03-08T14:51:57;98986.25;;;1.21;61.79
66385;BME280;53426;55.872;37.462;2024-03-08T14:55:05;98810.97;;;0.24;62.04
66385;BME280;53426;55.872;37.462;2024-03-08T15:01:06;98955.63;;;1.09;62.16
66385;BME280;53426;55.872;37.462;2024-03-08T15:07:48;98874.38;;;0.38;62.92
66385;BME280;53426;55.872;37.462;2024-03-08T15:13:29;98728.81;;;-0.62;63.82
66385;BME280;53426;55.872;37.462;2024-03-08T15:16:13;98993.72;;;0.80;63.56
66385;BME280;53426;55.872;37.462;2024-03-08T15:18:42;98807.75;;;-0.47;64.09
66385;BME280;53426;55.872;37.462;2024-03-08T15:21:38;98786.09;;;-0.30;64.11
66385;BME280;53426;55.872;37.462;2024-03-08T15:24:17;98874.28;;;0.24;64.00
66385;BME280;53426;55.872;37.462;2024-03-08T15:26:54;98973.44;;;0.70;64.67
66385;BME280;53426;55.872;37.462;2024-03-08T15:29:21;98966.84;;;0.63;65.01
66385;BME280;53426;55.872;37.462;2024-03-08T15:31:52;98916.25;;;0.18;64.90
66385;BME280;53426;55.872;37.462;2024-03-08T15:34:26;99007.63;;;0.64;64.55
66385;BME280;53426;55.872;37.462;2024-03-08T15:36:54;98830.38;;;-0.32;64.69
66385;BME280;53426;55.872;37.462;2024-03-08T15:39:26;98847.00;;;-0.34;64.37
66385;BME280;53426;55.872;37.462;2024-03-08T15:41:52;98895.25;;;-0.12;64.87
66385;BME280;53426;55.872;37.462;2024-03-08T15:44:49;98858.16;;;-0.32;64.66
66385;BME280;53426;55.872;37.462;2024-03-08T15:47:17;98989.41;;;0.47;65.03
66385;BME280;53426;55.872;37.462;2024-03-08T15:49:44;98896.56;;;-0.37;65.64
66385;BME280;53426;55.872;37.462;2024-03-08T15:52:10;99020.22;;;0.38;65.50
66385;BME280;53426;55.872;37.462;2024-03-08T15:54:42;98847.00;;;-0.52;65.72
66385;BME280;53426;55.872;37.462;2024-03-08T15:57:09;98917.13;;;-0.16;66.10
66385;BME280;53426;55.872;37.462;2024-03-08T15:59:42;99045.94;;;0.27;65.80
66385;BME280;53426;55.872;37.462;2024-03-08T16:05:10;98801.50;;;-1.12;66.09
66385;BME280;53426;55.872;37.462;2024-03-08T16:07:41;99054.22;;;0.18;66.50
66385;BME280;53426;55.872;37.462;2024-03-08T16:10:13;98965.72;;;-0.16;66.21
66385;BME280;53426;55.872;37.462;2024-03-08T16:12:47;98723.06;;;-1.54;66.16